sensor_id;sensor_type;location;lat;lon;timestamp;P1;durP1;ratioP1;P2;durP2;ratioP2
2544;SDS011;36212;48.838;9.142;2023-05-10T00:01:03;1.85;;;1.05;;
2544;SDS011;36212;48.838;9.142;2023-05-10T00:03:35;1.20;;;1.10;;
2544;SDS011;36212;48.838;9.142;2023-05-10T00:06:07;1.40;;;1.17;;
2544;SDS011;36212;48.838;9.142;2023-05-10T00:08:39;1.65;;;1.00;;
2544;SDS011;36212;48.838;9.142;2023-05-10T00:11:11;1.05;;;1.05;;
2544;SDS011;36212;48.838;9.142;2023-05-10T00:13:43;1.10;;;1.00;;
2544;SDS011;36212;48.838;9.142;2023-05-10T00:16:16;1.20;;;1.10;;
2544;SDS011;36212;48.838;9.142;2023-05-10T00:18:48;1.10;;;1.00;;
2544;SDS011;36212;48.838;9.142;2023-05-10T00:21:20;1.10;;;1.00;;
2544;SDS011;36212;48.838;9.142;2023-05-10T00:23:52;1.00;;;0.90;;
2544;SDS011;36212;48.838;9.142;2023-05-10T00:26:24;0.80;;;0.80;;
2544;SDS011;36212;48.838;9.142;2023-05-10T00:28:57;0.90;;;0.90;;
2544;SDS011;36212;48.838;9.142;2023-05-10T00:31:29;1.10;;;1.00;;
2544;SDS011;36212;48.838;9.142;2023-05-10T00:34:02;4.38;;;1.10;;
2544;SDS011;36212;48.838;9.142;2023-05-10T00:36:35;1.92;;;1.10;;
2544;SDS011;36212;48.838;9.142;2023-05-10T00:39:06;1.15;;;0.95;;
2544;SDS011;36212;48.838;9.142;2023-05-10T00:41:39;0.85;;;0.85;;
2544;SDS011;36212;48.838;9.142;2023-05-10T00:44:11;2.28;;;1.10;;
2544;SDS011;36212;48.838;9.142;2023-05-10T00:46:43;0.90;;;0.90;;
2544;SDS011;36212;48.838;9.142;2023-05-10T00:49:17;1.10;;;1.10;;
2544;SDS011;36212;48.838;9.142;2023-05-10T00:51:50;2.28;;;1.00;;
2544;SDS011;36212;48.838;9.142;2023-05-10T00:54:22;1.20;;;0.90;;
2544;SDS011;36212;48.838;9.142;2023-05-10T00:56:55;1.00;;;1.00;;
2544;SDS011;36212;48.838;9.142;2023-05-10T00:59:29;1.00;;;1.00;;
2544;SDS011;36212;48.838;9.142;2023-05-10T01:02:01;1.60;;;1.00;;
2544;SDS011;36212;48.838;9.142;2023-05-10T01:04:35;1.60;;;1.05;;
2544;SDS011;36212;48.838;9.142;2023-05-10T01:07:07;1.00;;;0.90;;
2544;SDS011;36212;48.838;9.142;2023-05-10T01:09:40;1.05;;;1.00;;
2544;SDS011;36212;48.838;9.142;2023-05-10T01:12:12;1.42;;;1.10;;
2544;SDS011;36212;48.838;9.142;2023-05-10T01:14:45;1.10;;;1.00;;
2544;SDS011;36212;48.838;9.142;2023-05-10T01:17:18;1.30;;;1.20;;
2544;SDS011;36212;48.838;9.142;2023-05-10T01:19:52;2.85;;;1.20;;
2544;SDS011;36212;48.838;9.142;2023-05-10T01:28:16;1.30;;;1.20;;
2544;SDS011;36212;48.838;9.142;2023-05-10T01:38:32;1.80;;;1.50;;
2544;SDS011;36212;48.838;9.142;2023-05-10T01:47:09;3.75;;;1.60;;
2544;SDS011;36212;48.838;9.142;2023-05-10T01:49:55;1.30;;;1.20;;
2544;SDS011;36212;48.838;9.142;2023-05-10T01:52:41;1.50;;;1.40;;
2544;SDS011;36212;48.838;9.142;2023-05-10T01:55:20;1.52;;;1.42;;
2544;SDS011;36212;48.838;9.142;2023-05-10T01:58:00;6.35;;;1.50;;
2544;SDS011;36212;48.838;9.142;2023-05-10T02:00:50;1.40;;;1.30;;
2544;SDS011;36212;48.838;9.142;2023-05-10T02:03:27;2.28;;;1.40;;
2544;SDS011;36212;48.838;9.142;2023-05-10T02:06:02;1.70;;;1.60;;
2544;SDS011;36212;48.838;9.142;2023-05-10T02:08:37;2.15;;;1.70;;
2544;SDS011;36212;48.838;9.142;2023-05-10T02:11:12;1.30;;;1.20;;
2544;SDS011;36212;48.838;9.142;2023-05-10T02:13:48;1.55;;;1.45;;
2544;SDS011;36212;48.838;9.142;2023-05-10T02:16:23;1.65;;;1.55;;
2544;SDS011;36212;48.838;9.142;2023-05-10T02:18:58;1.60;;;1.50;;
2544;SDS011;36212;48.838;9.142;2023-05-10T02:21:33;1.60;;;1.50;;
2544;SDS011;36212;48.838;9.142;2023-05-10T02:24:07;1.40;;;1.30;;
2544;SDS011;36212;48.838;9.142;2023-05-10T02:26:41;1.67;;;1.58;;
2544;SDS011;36212;48.838;9.142;2023-05-10T02:29:17;1.58;;;1.48;;
2544;SDS011;36212;48.838;9.142;2023-05-10T02:31:53;2.00;;;1.90;;
2544;SDS011;36212;48.838;9.142;2023-05-10T02:34:27;1.65;;;1.55;;
2544;SDS011;36212;48.838;9.142;2023-05-10T02:37:00;1.80;;;1.70;;
2544;SDS011;36212;48.838;9.142;2023-05-10T02:39:34;1.90;;;1.75;;
2544;SDS011;36212;48.838;9.142;2023-05-10T02:42:10;1.75;;;1.65;;
2544;SDS011;36212;48.838;9.142;2023-05-10T02:44:54;1.60;;;1.50;;
2544;SDS011;36212;48.838;9.142;2023-05-10T02:47:32;2.45;;;2.00;;
2544;SDS011;36212;48.838;9.142;2023-05-10T02:50:05;1.80;;;1.70;;
2544;SDS011;36212;48.838;9.142;2023-05-10T02:52:51;1.67;;;1.58;;
2544;SDS011;36212;48.838;9.142;2023-05-10T02:55:31;2.03;;;1.92;;
2544;SDS011;36212;48.838;9.142;2023-05-10T02:58:10;1.73;;;1.63;;
2544;SDS011;36212;48.838;9.142;2023-05-10T03:00:42;1.70;;;1.60;;
2544;SDS011;36212;48.838;9.142;2023-05-10T03:03:16;1.88;;;1.77;;
2544;SDS011;36212;48.838;9.142;2023-05-10T03:05:49;1.98;;;1.88;;
2544;SDS011;36212;48.838;9.142;2023-05-10T03:08:23;1.73;;;1.63;;
2544;SDS011;36212;48.838;9.142;2023-05-10T03:26:01;4.30;;;4.00;;
2544;SDS011;36212;48.838;9.142;2023-05-10T03:28:34;4.90;;;4.55;;
2544;SDS011;36212;48.838;9.142;2023-05-10T03:31:09;5.13;;;4.68;;
2544;SDS011;36212;48.838;9.142;2023-05-10T03:33:48;4.50;;;4.20;;
2544;SDS011;36212;48.838;9.142;2023-05-10T03:36:22;5.35;;;4.85;;
2544;SDS011;36212;48.838;9.142;2023-05-10T03:38:54;4.50;;;4.20;;
2544;SDS011;36212;48.838;9.142;2023-05-10T03:41:26;4.45;;;4.20;;
2544;SDS011;36212;48.838;9.142;2023-05-10T03:43:59;3.80;;;3.60;;
2544;SDS011;36212;48.838;9.142;2023-05-10T03:46:31;3.63;;;3.42;;
2544;SDS011;36212;48.838;9.142;2023-05-10T03:49:03;3.75;;;3.45;;
2544;SDS011;36212;48.838;9.142;2023-05-10T03:51:35;3.40;;;3.10;;
2544;SDS011;36212;48.838;9.142;2023-05-10T03:54:07;3.15;;;2.97;;
2544;SDS011;36212;48.838;9.142;2023-05-10T03:56:39;3.22;;;3.03;;
2544;SDS011;36212;48.838;9.142;2023-05-10T03:59:12;3.17;;;3.00;;
2544;SDS011;36212;48.838;9.142;2023-05-10T04:01:44;2.50;;;2.40;;
2544;SDS011;36212;48.838;9.142;2023-05-10T04:04:16;3.40;;;3.10;;
2544;SDS011;36212;48.838;9.142;2023-05-10T04:06:51;3.17;;;2.97;;
2544;SDS011;36212;48.838;9.142;2023-05-10T04:09:23;3.00;;;2.90;;
2544;SDS011;36212;48.838;9.142;2023-05-10T04:11:58;2.70;;;2.50;;
2544;SDS011;36212;48.838;9.142;2023-05-10T04:14:32;3.25;;;3.05;;
2544;SDS011;36212;48.838;9.142;2023-05-10T04:17:04;2.72;;;2.53;;
2544;SDS011;36212;48.838;9.142;2023-05-10T04:19:37;3.90;;;2.42;;
2544;SDS011;36212;48.838;9.142;2023-05-10T04:22:09;2.60;;;2.40;;
2544;SDS011;36212;48.838;9.142;2023-05-10T04:24:41;2.60;;;2.50;;
2544;SDS011;36212;48.838;9.142;2023-05-10T04:27:13;2.30;;;2.20;;
2544;SDS011;36212;48.838;9.142;2023-05-10T04:29:46;2.70;;;2.60;;
2544;SDS011;36212;48.838;9.142;2023-05-10T04:32:18;2.40;;;2.20;;
2544;SDS011;36212;48.838;9.142;2023-05-10T04:34:52;2.08;;;1.98;;
2544;SDS011;36212;48.838;9.142;2023-05-10T04:37:24;2.25;;;2.15;;
2544;SDS011;36212;48.838;9.142;2023-05-10T04:39:56;2.05;;;1.95;;
2544;SDS011;36212;48.838;9.142;2023-05-10T04:42:30;2.10;;;2.00;;
2544;SDS011;36212;48.838;9.142;2023-05-10T04:45:02;2.13;;;2.00;;
2544;SDS011;36212;48.838;9.142;2023-05-10T04:47:35;2.92;;;2.30;;
2544;SDS011;36212;48.838;9.142;2023-05-10T04:50:08;2.10;;;2.00;;
2544;SDS011;36212;48.838;9.142;2023-05-10T04:52:40;2.30;;;2.20;;
2544;SDS011;36212;48.838;9.142;2023-05-10T04:55:12;2.40;;;2.20;;
2544;SDS011;36212;48.838;9.142;2023-05-10T04:57:45;2.70;;;2.45;;
2544;SDS011;36212;48.838;9.142;2023-05-10T05:00:17;3.00;;;2.80;;
2544;SDS011;36212;48.838;9.142;2023-05-10T05:02:50;2.15;;;2.05;;
2544;SDS011;36212;48.838;9.142;2023-05-10T05:05:23;2.30;;;2.20;;
2544;SDS011;36212;48.838;9.142;2023-05-10T05:07:55;2.30;;;2.10;;
2544;SDS011;36212;48.838;9.142;2023-05-10T05:10:27;2.60;;;2.40;;
2544;SDS011;36212;48.838;9.142;2023-05-10T05:13:00;2.30;;;2.20;;
2544;SDS011;36212;48.838;9.142;2023-05-10T05:15:32;2.25;;;2.13;;
2544;SDS011;36212;48.838;9.142;2023-05-10T05:18:04;2.17;;;2.00;;
2544;SDS011;36212;48.838;9.142;2023-05-10T05:20:36;2.40;;;2.30;;
2544;SDS011;36212;48.838;9.142;2023-05-10T05:23:08;2.33;;;2.22;;
2544;SDS011;36212;48.838;9.142;2023-05-10T05:25:40;2.85;;;2.67;;
2544;SDS011;36212;48.838;9.142;2023-05-10T05:28:13;2.50;;;2.10;;
2544;SDS011;36212;48.838;9.142;2023-05-10T05:30:46;2.58;;;2.38;;
2544;SDS011;36212;48.838;9.142;2023-05-10T05:33:18;3.00;;;2.80;;
2544;SDS011;36212;48.838;9.142;2023-05-10T05:35:50;2.08;;;1.98;;
2544;SDS011;36212;48.838;9.142;2023-05-10T05:38:22;2.00;;;1.90;;
2544;SDS011;36212;48.838;9.142;2023-05-10T05:40:55;2.10;;;2.00;;
2544;SDS011;36212;48.838;9.142;2023-05-10T05:43:27;2.30;;;2.20;;
2544;SDS011;36212;48.838;9.142;2023-05-10T05:45:59;2.95;;;2.08;;
2544;SDS011;36212;48.838;9.142;2023-05-10T05:48:31;2.15;;;2.05;;
2544;SDS011;36212;48.838;9.142;2023-05-10T05:51:03;3.17;;;2.75;;
2544;SDS011;36212;48.838;9.142;2023-05-10T05:53:37;2.50;;;2.40;;
2544;SDS011;36212;48.838;9.142;2023-05-10T05:56:10;2.50;;;2.30;;
2544;SDS011;36212;48.838;9.142;2023-05-10T05:58:42;2.40;;;2.30;;
2544;SDS011;36212;48.838;9.142;2023-05-10T06:01:16;2.25;;;2.15;;
2544;SDS011;36212;48.838;9.142;2023-05-10T06:03:49;2.60;;;2.40;;
2544;SDS011;36212;48.838;9.142;2023-05-10T06:06:23;3.63;;;3.33;;
2544;SDS011;36212;48.838;9.142;2023-05-10T06:08:56;3.13;;;2.90;;
2544;SDS011;36212;48.838;9.142;2023-05-10T06:11:28;2.83;;;2.53;;
2544;SDS011;36212;48.838;9.142;2023-05-10T06:14:02;2.78;;;2.58;;
2544;SDS011;36212;48.838;9.142;2023-05-10T06:16:38;4.60;;;2.67;;
2544;SDS011;36212;48.838;9.142;2023-05-10T06:19:10;2.85;;;2.65;;
2544;SDS011;36212;48.838;9.142;2023-05-10T06:21:42;2.75;;;2.55;;
2544;SDS011;36212;48.838;9.142;2023-05-10T06:24:14;2.50;;;2.40;;
2544;SDS011;36212;48.838;9.142;2023-05-10T06:26:47;4.45;;;2.58;;
2544;SDS011;36212;48.838;9.142;2023-05-10T06:29:21;2.40;;;2.30;;
2544;SDS011;36212;48.838;9.142;2023-05-10T06:31:53;2.90;;;2.70;;
2544;SDS011;36212;48.838;9.142;2023-05-10T06:34:26;2.28;;;2.15;;
2544;SDS011;36212;48.838;9.142;2023-05-10T06:36:58;2.53;;;2.42;;
2544;SDS011;36212;48.838;9.142;2023-05-10T06:39:30;2.60;;;2.50;;
2544;SDS011;36212;48.838;9.142;2023-05-10T06:42:02;2.38;;;2.28;;
2544;SDS011;36212;48.838;9.142;2023-05-10T06:44:35;3.00;;;2.70;;
2544;SDS011;36212;48.838;9.142;2023-05-10T06:47:08;2.63;;;2.53;;
2544;SDS011;36212;48.838;9.142;2023-05-10T06:49:40;2.45;;;2.30;;
2544;SDS011;36212;48.838;9.142;2023-05-10T06:52:12;2.13;;;2.03;;
2544;SDS011;36212;48.838;9.142;2023-05-10T06:54:44;2.65;;;2.45;;
2544;SDS011;36212;48.838;9.142;2023-05-10T06:57:16;2.40;;;2.20;;
2544;SDS011;36212;48.838;9.142;2023-05-10T07:00:02;2.58;;;2.25;;
2544;SDS011;36212;48.838;9.142;2023-05-10T07:02:36;2.05;;;1.95;;
2544;SDS011;36212;48.838;9.142;2023-05-10T07:05:09;2.70;;;2.60;;
2544;SDS011;36212;48.838;9.142;2023-05-10T07:07:41;2.00;;;1.90;;
2544;SDS011;36212;48.838;9.142;2023-05-10T07:10:14;3.92;;;2.15;;
2544;SDS011;36212;48.838;9.142;2023-05-10T07:12:46;2.85;;;2.38;;
2544;SDS011;36212;48.838;9.142;2023-05-10T07:15:18;2.50;;;2.30;;
2544;SDS011;36212;48.838;9.142;2023-05-10T07:17:50;3.90;;;2.22;;
2544;SDS011;36212;48.838;9.142;2023-05-10T07:20:23;2.63;;;2.40;;
2544;SDS011;36212;48.838;9.142;2023-05-10T07:22:56;2.00;;;1.90;;
2544;SDS011;36212;48.838;9.142;2023-05-10T07:25:28;2.35;;;2.17;;
2544;SDS011;36212;48.838;9.142;2023-05-10T07:28:00;2.30;;;2.20;;
2544;SDS011;36212;48.838;9.142;2023-05-10T07:30:32;2.78;;;2.35;;
2544;SDS011;36212;48.838;9.142;2023-05-10T07:33:04;2.80;;;1.77;;
2544;SDS011;36212;48.838;9.142;2023-05-10T07:35:38;1.98;;;1.88;;
2544;SDS011;36212;48.838;9.142;2023-05-10T07:38:11;1.75;;;1.65;;
2544;SDS011;36212;48.838;9.142;2023-05-10T07:40:44;2.95;;;1.70;;
2544;SDS011;36212;48.838;9.142;2023-05-10T07:43:16;1.42;;;1.33;;
2544;SDS011;36212;48.838;9.142;2023-05-10T07:45:48;1.90;;;1.70;;
2544;SDS011;36212;48.838;9.142;2023-05-10T07:48:20;1.73;;;1.63;;
2544;SDS011;36212;48.838;9.142;2023-05-10T07:50:52;2.55;;;1.83;;
2544;SDS011;36212;48.838;9.142;2023-05-10T07:53:25;1.77;;;1.67;;
2544;SDS011;36212;48.838;9.142;2023-05-10T07:55:58;1.70;;;1.60;;
2544;SDS011;36212;48.838;9.142;2023-05-10T07:58:50;1.65;;;1.55;;
2544;SDS011;36212;48.838;9.142;2023-05-10T08:01:24;1.73;;;1.63;;
2544;SDS011;36212;48.838;9.142;2023-05-10T08:04:00;1.60;;;1.50;;
2544;SDS011;36212;48.838;9.142;2023-05-10T08:06:34;1.45;;;1.35;;
2544;SDS011;36212;48.838;9.142;2023-05-10T08:09:06;1.98;;;1.65;;
2544;SDS011;36212;48.838;9.142;2023-05-10T08:11:39;1.75;;;1.65;;
2544;SDS011;36212;48.838;9.142;2023-05-10T08:14:11;1.60;;;1.50;;
2544;SDS011;36212;48.838;9.142;2023-05-10T08:16:44;1.65;;;1.55;;
2544;SDS011;36212;48.838;9.142;2023-05-10T08:19:19;1.90;;;1.50;;
2544;SDS011;36212;48.838;9.142;2023-05-10T08:21:53;2.38;;;1.50;;
2544;SDS011;36212;48.838;9.142;2023-05-10T08:24:27;1.30;;;1.20;;
2544;SDS011;36212;48.838;9.142;2023-05-10T08:26:59;2.85;;;1.65;;
2544;SDS011;36212;48.838;9.142;2023-05-10T08:29:32;2.28;;;1.30;;
2544;SDS011;36212;48.838;9.142;2023-05-10T08:32:20;2.10;;;1.00;;
2544;SDS011;36212;48.838;9.142;2023-05-10T08:34:52;2.55;;;1.02;;
2544;SDS011;36212;48.838;9.142;2023-05-10T08:37:25;1.65;;;1.20;;
2544;SDS011;36212;48.838;9.142;2023-05-10T08:39:59;1.35;;;0.98;;
2544;SDS011;36212;48.838;9.142;2023-05-10T08:42:33;1.25;;;1.15;;
2544;SDS011;36212;48.838;9.142;2023-05-10T08:45:10;1.20;;;1.10;;
2544;SDS011;36212;48.838;9.142;2023-05-10T08:47:45;1.70;;;1.23;;
2544;SDS011;36212;48.838;9.142;2023-05-10T08:50:18;1.40;;;1.30;;
2544;SDS011;36212;48.838;9.142;2023-05-10T08:52:55;1.35;;;1.25;;
2544;SDS011;36212;48.838;9.142;2023-05-10T08:55:30;4.15;;;1.52;;
2544;SDS011;36212;48.838;9.142;2023-05-10T08:58:07;1.40;;;1.27;;
2544;SDS011;36212;48.838;9.142;2023-05-10T09:00:41;1.20;;;1.10;;
2544;SDS011;36212;48.838;9.142;2023-05-10T09:03:14;2.38;;;1.10;;
2544;SDS011;36212;48.838;9.142;2023-05-10T09:05:48;1.63;;;1.20;;
2544;SDS011;36212;48.838;9.142;2023-05-10T09:08:20;1.48;;;1.00;;
2544;SDS011;36212;48.838;9.142;2023-05-10T09:10:57;1.00;;;1.00;;
2544;SDS011;36212;48.838;9.142;2023-05-10T09:13:30;1.63;;;1.17;;
2544;SDS011;36212;48.838;9.142;2023-05-10T09:16:03;1.10;;;1.00;;
2544;SDS011;36212;48.838;9.142;2023-05-10T09:18:51;1.05;;;1.00;;
2544;SDS011;36212;48.838;9.142;2023-05-10T09:21:24;1.20;;;1.10;;
2544;SDS011;36212;48.838;9.142;2023-05-10T09:23:57;1.93;;;1.77;;
2544;SDS011;36212;48.838;9.142;2023-05-10T09:26:39;1.20;;;1.10;;
2544;SDS011;36212;48.838;9.142;2023-05-10T09:29:19;1.50;;;1.40;;
2544;SDS011;36212;48.838;9.142;2023-05-10T09:31:52;2.10;;;1.20;;
2544;SDS011;36212;48.838;9.142;2023-05-10T09:34:30;1.10;;;0.97;;
2544;SDS011;36212;48.838;9.142;2023-05-10T09:37:05;1.30;;;1.20;;
2544;SDS011;36212;48.838;9.142;2023-05-10T09:39:38;1.20;;;1.10;;
2544;SDS011;36212;48.838;9.142;2023-05-10T09:42:11;1.20;;;1.10;;
2544;SDS011;36212;48.838;9.142;2023-05-10T09:44:48;2.05;;;1.10;;
2544;SDS011;36212;48.838;9.142;2023-05-10T09:47:20;1.17;;;1.07;;
2544;SDS011;36212;48.838;9.142;2023-05-10T09:49:52;4.60;;;1.50;;
2544;SDS011;36212;48.838;9.142;2023-05-10T09:52:45;2.40;;;1.10;;
2544;SDS011;36212;48.838;9.142;2023-05-10T09:55:23;2.50;;;1.03;;
2544;SDS011;36212;48.838;9.142;2023-05-10T09:58:16;1.30;;;1.20;;
2544;SDS011;36212;48.838;9.142;2023-05-10T10:00:48;1.30;;;1.10;;
2544;SDS011;36212;48.838;9.142;2023-05-10T10:03:23;1.88;;;1.15;;
2544;SDS011;36212;48.838;9.142;2023-05-10T10:05:59;1.20;;;1.10;;
2544;SDS011;36212;48.838;9.142;2023-05-10T10:08:32;1.55;;;1.05;;
2544;SDS011;36212;48.838;9.142;2023-05-10T10:11:04;1.50;;;1.40;;
2544;SDS011;36212;48.838;9.142;2023-05-10T10:13:37;1.20;;;1.10;;
2544;SDS011;36212;48.838;9.142;2023-05-10T10:16:09;1.50;;;1.40;;
2544;SDS011;36212;48.838;9.142;2023-05-10T10:18:41;2.10;;;1.00;;
2544;SDS011;36212;48.838;9.142;2023-05-10T10:21:14;1.40;;;1.30;;
2544;SDS011;36212;48.838;9.142;2023-05-10T10:23:47;2.60;;;1.10;;
2544;SDS011;36212;48.838;9.142;2023-05-10T10:26:20;1.33;;;1.23;;
2544;SDS011;36212;48.838;9.142;2023-05-10T10:32:27;1.30;;;1.20;;
2544;SDS011;36212;48.838;9.142;2023-05-10T10:35:43;1.30;;;1.20;;
2544;SDS011;36212;48.838;9.142;2023-05-10T10:38:17;1.25;;;1.15;;
2544;SDS011;36212;48.838;9.142;2023-05-10T10:41:06;1.20;;;1.10;;
2544;SDS011;36212;48.838;9.142;2023-05-10T10:47:06;1.70;;;1.10;;
2544;SDS011;36212;48.838;9.142;2023-05-10T10:52:37;0.90;;;0.90;;
2544;SDS011;36212;48.838;9.142;2023-05-10T10:55:20;3.23;;;1.13;;
2544;SDS011;36212;48.838;9.142;2023-05-10T10:57:56;1.13;;;1.03;;
2544;SDS011;36212;48.838;9.142;2023-05-10T11:00:38;1.43;;;1.00;;
2544;SDS011;36212;48.838;9.142;2023-05-10T11:03:14;1.20;;;1.10;;
2544;SDS011;36212;48.838;9.142;2023-05-10T11:05:55;3.13;;;1.10;;
2544;SDS011;36212;48.838;9.142;2023-05-10T11:08:32;2.17;;;1.10;;
2544;SDS011;36212;48.838;9.142;2023-05-10T11:11:14;2.13;;;1.05;;
2544;SDS011;36212;48.838;9.142;2023-05-10T11:13:47;1.43;;;1.30;;
2544;SDS011;36212;48.838;9.142;2023-05-10T11:16:22;2.70;;;1.10;;
2544;SDS011;36212;48.838;9.142;2023-05-10T11:19:04;1.30;;;1.07;;
2544;SDS011;36212;48.838;9.142;2023-05-10T11:21:51;3.00;;;1.07;;
2544;SDS011;36212;48.838;9.142;2023-05-10T11:24:55;1.70;;;1.10;;
2544;SDS011;36212;48.838;9.142;2023-05-10T11:27:28;2.83;;;1.23;;
2544;SDS011;36212;48.838;9.142;2023-05-10T11:30:04;2.00;;;1.37;;
2544;SDS011;36212;48.838;9.142;2023-05-10T11:32:40;1.83;;;1.20;;
2544;SDS011;36212;48.838;9.142;2023-05-10T11:35:13;3.00;;;1.50;;
2544;SDS011;36212;48.838;9.142;2023-05-10T11:37:47;2.40;;;1.30;;
2544;SDS011;36212;48.838;9.142;2023-05-10T11:40:23;2.37;;;1.37;;
2544;SDS011;36212;48.838;9.142;2023-05-10T11:42:56;1.43;;;1.20;;
2544;SDS011;36212;48.838;9.142;2023-05-10T11:45:31;2.07;;;1.30;;
2544;SDS011;36212;48.838;9.142;2023-05-10T11:48:05;2.23;;;1.40;;
2544;SDS011;36212;48.838;9.142;2023-05-10T11:50:38;3.20;;;1.30;;
2544;SDS011;36212;48.838;9.142;2023-05-10T11:53:12;1.73;;;1.30;;
2544;SDS011;36212;48.838;9.142;2023-05-10T11:55:47;1.43;;;1.30;;
2544;SDS011;36212;48.838;9.142;2023-05-10T11:58:20;2.07;;;1.53;;
2544;SDS011;36212;48.838;9.142;2023-05-10T12:00:55;1.30;;;1.20;;
2544;SDS011;36212;48.838;9.142;2023-05-10T12:03:28;4.40;;;1.57;;
2544;SDS011;36212;48.838;9.142;2023-05-10T12:06:02;1.80;;;1.57;;
2544;SDS011;36212;48.838;9.142;2023-05-10T12:08:34;1.63;;;1.40;;
2544;SDS011;36212;48.838;9.142;2023-05-10T12:11:14;1.40;;;1.27;;
2544;SDS011;36212;48.838;9.142;2023-05-10T12:13:47;1.63;;;1.33;;
2544;SDS011;36212;48.838;9.142;2023-05-10T12:16:20;1.55;;;1.45;;
2544;SDS011;36212;48.838;9.142;2023-05-10T12:18:56;2.07;;;1.50;;
2544;SDS011;36212;48.838;9.142;2023-05-10T12:21:30;1.60;;;1.50;;
2544;SDS011;36212;48.838;9.142;2023-05-10T12:24:03;2.05;;;1.40;;
2544;SDS011;36212;48.838;9.142;2023-05-10T12:26:37;10.37;;;1.90;;
2544;SDS011;36212;48.838;9.142;2023-05-10T12:29:15;1.43;;;1.20;;
2544;SDS011;36212;48.838;9.142;2023-05-10T12:31:58;1.60;;;1.50;;
2544;SDS011;36212;48.838;9.142;2023-05-10T12:34:32;1.50;;;1.40;;
2544;SDS011;36212;48.838;9.142;2023-05-10T12:37:08;1.48;;;1.38;;
2544;SDS011;36212;48.838;9.142;2023-05-10T12:39:41;1.35;;;1.23;;
2544;SDS011;36212;48.838;9.142;2023-05-10T12:42:16;2.30;;;1.40;;
2544;SDS011;36212;48.838;9.142;2023-05-10T12:44:48;1.93;;;1.20;;
2544;SDS011;36212;48.838;9.142;2023-05-10T12:47:25;1.30;;;1.20;;
2544;SDS011;36212;48.838;9.142;2023-05-10T12:49:58;1.30;;;1.20;;
2544;SDS011;36212;48.838;9.142;2023-05-10T12:52:33;1.40;;;1.30;;
2544;SDS011;36212;48.838;9.142;2023-05-10T12:55:06;1.40;;;1.20;;
2544;SDS011;36212;48.838;9.142;2023-05-10T12:57:38;1.50;;;1.40;;
2544;SDS011;36212;48.838;9.142;2023-05-10T13:00:10;1.40;;;1.30;;
2544;SDS011;36212;48.838;9.142;2023-05-10T13:02:44;1.30;;;1.20;;
2544;SDS011;36212;48.838;9.142;2023-05-10T13:05:16;1.70;;;1.60;;
2544;SDS011;36212;48.838;9.142;2023-05-10T13:07:48;2.80;;;1.80;;
2544;SDS011;36212;48.838;9.142;2023-05-10T13:10:20;1.93;;;1.40;;
2544;SDS011;36212;48.838;9.142;2023-05-10T13:12:55;2.87;;;1.23;;
2544;SDS011;36212;48.838;9.142;2023-05-10T13:15:28;1.90;;;1.30;;
2544;SDS011;36212;48.838;9.142;2023-05-10T13:18:01;1.27;;;1.17;;
2544;SDS011;36212;48.838;9.142;2023-05-10T13:20:33;5.33;;;1.40;;
2544;SDS011;36212;48.838;9.142;2023-05-10T13:23:05;1.45;;;1.35;;
2544;SDS011;36212;48.838;9.142;2023-05-10T13:25:37;1.37;;;1.27;;
2544;SDS011;36212;48.838;9.142;2023-05-10T13:28:10;1.83;;;1.30;;
2544;SDS011;36212;48.838;9.142;2023-05-10T13:30:42;3.43;;;1.60;;
2544;SDS011;36212;48.838;9.142;2023-05-10T13:33:15;1.87;;;1.20;;
2544;SDS011;36212;48.838;9.142;2023-05-10T13:35:47;1.50;;;1.40;;
2544;SDS011;36212;48.838;9.142;2023-05-10T13:38:20;1.87;;;1.43;;
2544;SDS011;36212;48.838;9.142;2023-05-10T13:40:53;1.80;;;1.50;;
2544;SDS011;36212;48.838;9.142;2023-05-10T13:43:25;1.70;;;1.27;;
2544;SDS011;36212;48.838;9.142;2023-05-10T13:45:59;2.03;;;1.40;;
2544;SDS011;36212;48.838;9.142;2023-05-10T13:48:31;1.30;;;1.20;;
2544;SDS011;36212;48.838;9.142;2023-05-10T13:51:03;1.93;;;1.80;;
2544;SDS011;36212;48.838;9.142;2023-05-10T13:53:35;5.57;;;1.20;;
2544;SDS011;36212;48.838;9.142;2023-05-10T13:56:08;1.50;;;1.40;;
2544;SDS011;36212;48.838;9.142;2023-05-10T13:58:40;1.60;;;1.50;;
2544;SDS011;36212;48.838;9.142;2023-05-10T14:01:13;1.52;;;1.30;;
2544;SDS011;36212;48.838;9.142;2023-05-10T14:03:46;1.47;;;1.37;;
2544;SDS011;36212;48.838;9.142;2023-05-10T14:06:19;1.17;;;1.00;;
2544;SDS011;36212;48.838;9.142;2023-05-10T14:08:51;1.17;;;1.00;;
2544;SDS011;36212;48.838;9.142;2023-05-10T14:11:24;2.83;;;1.73;;
2544;SDS011;36212;48.838;9.142;2023-05-10T14:13:56;2.47;;;1.30;;
2544;SDS011;36212;48.838;9.142;2023-05-10T14:16:28;1.20;;;1.10;;
2544;SDS011;36212;48.838;9.142;2023-05-10T14:19:02;1.27;;;1.17;;
2544;SDS011;36212;48.838;9.142;2023-05-10T14:21:35;3.30;;;1.30;;
2544;SDS011;36212;48.838;9.142;2023-05-10T14:24:07;7.00;;;1.60;;
2544;SDS011;36212;48.838;9.142;2023-05-10T14:26:40;1.50;;;1.40;;
2544;SDS011;36212;48.838;9.142;2023-05-10T14:29:12;1.30;;;1.20;;
2544;SDS011;36212;48.838;9.142;2023-05-10T14:31:44;3.43;;;1.40;;
2544;SDS011;36212;48.838;9.142;2023-05-10T14:34:17;3.57;;;1.70;;
2544;SDS011;36212;48.838;9.142;2023-05-10T14:36:50;1.40;;;1.30;;
2544;SDS011;36212;48.838;9.142;2023-05-10T14:39:22;1.83;;;1.73;;
2544;SDS011;36212;48.838;9.142;2023-05-10T14:41:54;2.23;;;1.50;;
2544;SDS011;36212;48.838;9.142;2023-05-10T14:44:27;1.97;;;1.70;;
2544;SDS011;36212;48.838;9.142;2023-05-10T14:46:59;3.30;;;1.20;;
2544;SDS011;36212;48.838;9.142;2023-05-10T14:49:31;1.70;;;1.20;;
2544;SDS011;36212;48.838;9.142;2023-05-10T14:52:03;4.03;;;1.17;;
2544;SDS011;36212;48.838;9.142;2023-05-10T14:54:35;1.10;;;1.00;;
2544;SDS011;36212;48.838;9.142;2023-05-10T14:57:08;1.30;;;1.20;;
2544;SDS011;36212;48.838;9.142;2023-05-10T14:59:41;2.00;;;1.43;;
2544;SDS011;36212;48.838;9.142;2023-05-10T15:02:14;1.50;;;1.40;;
2544;SDS011;36212;48.838;9.142;2023-05-10T15:04:47;1.30;;;1.20;;
2544;SDS011;36212;48.838;9.142;2023-05-10T15:07:23;1.30;;;1.10;;
2544;SDS011;36212;48.838;9.142;2023-05-10T15:09:55;1.33;;;1.23;;
2544;SDS011;36212;48.838;9.142;2023-05-10T15:12:27;1.17;;;1.07;;
2544;SDS011;36212;48.838;9.142;2023-05-10T15:15:00;1.20;;;1.10;;
2544;SDS011;36212;48.838;9.142;2023-05-10T15:17:33;1.20;;;1.10;;
2544;SDS011;36212;48.838;9.142;2023-05-10T15:20:06;1.20;;;1.07;;
2544;SDS011;36212;48.838;9.142;2023-05-10T15:22:48;2.17;;;1.30;;
2544;SDS011;36212;48.838;9.142;2023-05-10T15:25:24;1.40;;;1.30;;
2544;SDS011;36212;48.838;9.142;2023-05-10T15:27:59;1.70;;;1.40;;
2544;SDS011;36212;48.838;9.142;2023-05-10T15:30:35;2.03;;;1.27;;
2544;SDS011;36212;48.838;9.142;2023-05-10T15:33:08;2.60;;;1.23;;
2544;SDS011;36212;48.838;9.142;2023-05-10T15:35:47;2.30;;;1.37;;
2544;SDS011;36212;48.838;9.142;2023-05-10T15:38:20;1.47;;;1.20;;
2544;SDS011;36212;48.838;9.142;2023-05-10T15:40:56;2.60;;;1.40;;
2544;SDS011;36212;48.838;9.142;2023-05-10T15:43:34;1.23;;;1.13;;
2544;SDS011;36212;48.838;9.142;2023-05-10T15:46:08;1.73;;;1.50;;
2544;SDS011;36212;48.838;9.142;2023-05-10T15:48:46;1.40;;;1.30;;
2544;SDS011;36212;48.838;9.142;2023-05-10T15:51:22;1.50;;;1.40;;
2544;SDS011;36212;48.838;9.142;2023-05-10T15:53:56;2.03;;;1.50;;
2544;SDS011;36212;48.838;9.142;2023-05-10T15:56:39;2.33;;;1.50;;
2544;SDS011;36212;48.838;9.142;2023-05-10T15:59:13;1.27;;;1.17;;
2544;SDS011;36212;48.838;9.142;2023-05-10T16:01:47;1.50;;;1.37;;
2544;SDS011;36212;48.838;9.142;2023-05-10T16:04:22;1.40;;;1.20;;
2544;SDS011;36212;48.838;9.142;2023-05-10T16:06:58;1.87;;;1.20;;
2544;SDS011;36212;48.838;9.142;2023-05-10T16:09:33;2.63;;;1.07;;
2544;SDS011;36212;48.838;9.142;2023-05-10T16:12:08;1.30;;;1.20;;
2544;SDS011;36212;48.838;9.142;2023-05-10T16:14:44;2.97;;;1.20;;
2544;SDS011;36212;48.838;9.142;2023-05-10T16:17:23;1.40;;;1.20;;
2544;SDS011;36212;48.838;9.142;2023-05-10T16:19:59;1.03;;;1.00;;
2544;SDS011;36212;48.838;9.142;2023-05-10T16:22:37;7.80;;;2.07;;
2544;SDS011;36212;48.838;9.142;2023-05-10T16:25:13;2.20;;;1.40;;
2544;SDS011;36212;48.838;9.142;2023-05-10T16:27:48;1.57;;;1.10;;